sensor_id;sensor_type;location;lat;lon;timestamp;temperature;humidity
9414;DHT22;4746;35.664;139.738;2023-12-29T00:01:37;8.00;99.90
9414;DHT22;4746;35.664;139.738;2023-12-29T00:04:05;8.10;99.90
9414;DHT22;4746;35.664;139.738;2023-12-29T00:06:32;8.10;99.90
9414;DHT22;4746;35.664;139.738;2023-12-29T00:09:00;8.20;99.90
9414;DHT22;4746;35.664;139.738;2023-12-29T00:11:28;8.20;99.90
9414;DHT22;4746;35.664;139.738;2023-12-29T00:13:56;8.30;99.90
9414;DHT22;4746;35.664;139.738;2023-12-29T00:16:23;8.40;99.90
9414;DHT22;4746;35.664;139.738;2023-12-29T00:18:51;8.40;99.90
9414;DHT22;4746;35.664;139.738;2023-12-29T00:21:18;8.50;99.90
9414;DHT22;4746;35.664;139.738;2023-12-29T00:23:46;8.50;99.90
9414;DHT22;4746;35.664;139.738;2023-12-29T00:26:17;8.50;99.90
9414;DHT22;4746;35.664;139.738;2023-12-29T00:28:45;8.60;99.90
9414;DHT22;4746;35.664;139.738;2023-12-29T00:31:16;8.70;99.90
9414;DHT22;4746;35.664;139.738;2023-12-29T00:33:44;8.70;99.90
9414;DHT22;4746;35.664;139.738;2023-12-29T00:36:18;8.80;99.90
9414;DHT22;4746;35.664;139.738;2023-12-29T00:38:46;8.90;99.90
9414;DHT22;4746;35.664;139.738;2023-12-29T00:41:13;8.90;99.90
9414;DHT22;4746;35.664;139.738;2023-12-29T00:43:41;9.00;99.90
9414;DHT22;4746;35.664;139.738;2023-12-29T00:46:09;9.00;99.90
9414;DHT22;4746;35.664;139.738;2023-12-29T00:48:36;9.10;99.90
9414;DHT22;4746;35.664;139.738;2023-12-29T00:51:04;9.20;99.90
9414;DHT22;4746;35.664;139.738;2023-12-29T00:53:31;9.30;99.90
9414;DHT22;4746;35.664;139.738;2023-12-29T00:56:01;9.40;99.90
9414;DHT22;4746;35.664;139.738;2023-12-29T00:58:29;9.50;99.90
9414;DHT22;4746;35.664;139.738;2023-12-29T01:00:56;9.50;99.90
9414;DHT22;4746;35.664;139.738;2023-12-29T01:03:24;9.60;99.90
9414;DHT22;4746;35.664;139.738;2023-12-29T01:05:51;9.60;99.90
9414;DHT22;4746;35.664;139.738;2023-12-29T01:08:19;9.70;99.90
9414;DHT22;4746;35.664;139.738;2023-12-29T01:10:46;9.70;99.90
9414;DHT22;4746;35.664;139.738;2023-12-29T01:13:14;9.80;99.90
9414;DHT22;4746;35.664;139.738;2023-12-29T01:15:41;9.80;99.90
9414;DHT22;4746;35.664;139.738;2023-12-29T01:18:12;9.90;99.90
9414;DHT22;4746;35.664;139.738;2023-12-29T01:20:39;10.00;99.90
9414;DHT22;4746;35.664;139.738;2023-12-29T01:23:07;10.10;99.90
9414;DHT22;4746;35.664;139.738;2023-12-29T01:25:34;10.20;99.90
9414;DHT22;4746;35.664;139.738;2023-12-29T01:28:02;10.30;99.90
9414;DHT22;4746;35.664;139.738;2023-12-29T01:30:30;10.40;99.90
9414;DHT22;4746;35.664;139.738;2023-12-29T01:32:57;10.60;99.90
9414;DHT22;4746;35.664;139.738;2023-12-29T01:35:27;10.70;99.90
9414;DHT22;4746;35.664;139.738;2023-12-29T01:37:54;10.70;99.90
9414;DHT22;4746;35.664;139.738;2023-12-29T01:40:23;10.90;99.90
9414;DHT22;4746;35.664;139.738;2023-12-29T01:42:51;11.00;99.90
9414;DHT22;4746;35.664;139.738;2023-12-29T01:45:23;11.00;99.90
9414;DHT22;4746;35.664;139.738;2023-12-29T01:47:53;11.10;99.70
9414;DHT22;4746;35.664;139.738;2023-12-29T01:50:21;11.10;99.30
9414;DHT22;4746;35.664;139.738;2023-12-29T01:52:50;11.20;98.70
9414;DHT22;4746;35.664;139.738;2023-12-29T01:55:21;11.20;97.80
9414;DHT22;4746;35.664;139.738;2023-12-29T01:57:52;11.20;96.70
9414;DHT22;4746;35.664;139.738;2023-12-29T02:00:21;11.20;95.80
9414;DHT22;4746;35.664;139.738;2023-12-29T02:02:49;11.30;95.50
9414;DHT22;4746;35.664;139.738;2023-12-29T02:05:17;11.30;95.10
9414;DHT22;4746;35.664;139.738;2023-12-29T02:07:50;11.30;94.60
9414;DHT22;4746;35.664;139.738;2023-12-29T02:10:19;11.40;94.40
9414;DHT22;4746;35.664;139.738;2023-12-29T02:12:48;11.50;94.00
9414;DHT22;4746;35.664;139.738;2023-12-29T02:15:17;11.60;93.60
9414;DHT22;4746;35.664;139.738;2023-12-29T02:17:51;11.70;93.20
9414;DHT22;4746;35.664;139.738;2023-12-29T02:20:26;11.80;92.70
9414;DHT22;4746;35.664;139.738;2023-12-29T02:22:54;11.90;91.80
9414;DHT22;4746;35.664;139.738;2023-12-29T02:25:22;12.00;92.00
9414;DHT22;4746;35.664;139.738;2023-12-29T02:27:55;12.20;91.60
9414;DHT22;4746;35.664;139.738;2023-12-29T02:33:07;12.60;90.10
9414;DHT22;4746;35.664;139.738;2023-12-29T02:35:43;12.70;88.00
9414;DHT22;4746;35.664;139.738;2023-12-29T02:38:12;12.90;86.90
9414;DHT22;4746;35.664;139.738;2023-12-29T02:40:40;13.00;82.90
9414;DHT22;4746;35.664;139.738;2023-12-29T02:43:10;13.10;82.70
9414;DHT22;4746;35.664;139.738;2023-12-29T02:45:38;13.20;79.30
9414;DHT22;4746;35.664;139.738;2023-12-29T02:48:06;13.30;77.60
9414;DHT22;4746;35.664;139.738;2023-12-29T02:50:34;13.50;76.30
9414;DHT22;4746;35.664;139.738;2023-12-29T02:53:02;13.80;73.30
9414;DHT22;4746;35.664;139.738;2023-12-29T02:55:33;13.90;71.30
9414;DHT22;4746;35.664;139.738;2023-12-29T02:58:03;14.10;69.90
9414;DHT22;4746;35.664;139.738;2023-12-29T03:00:30;14.10;66.40
9414;DHT22;4746;35.664;139.738;2023-12-29T03:02:58;14.20;66.00
9414;DHT22;4746;35.664;139.738;2023-12-29T03:05:27;14.30;65.40
9414;DHT22;4746;35.664;139.738;2023-12-29T03:07:55;14.50;64.40
9414;DHT22;4746;35.664;139.738;2023-12-29T03:10:23;14.70;62.60
9414;DHT22;4746;35.664;139.738;2023-12-29T03:12:51;14.80;61.10
9414;DHT22;4746;35.664;139.738;2023-12-29T03:15:18;15.00;60.50
9414;DHT22;4746;35.664;139.738;2023-12-29T03:17:46;15.10;59.50
9414;DHT22;4746;35.664;139.738;2023-12-29T03:20:13;15.40;59.10
9414;DHT22;4746;35.664;139.738;2023-12-29T03:22:41;15.80;59.10
9414;DHT22;4746;35.664;139.738;2023-12-29T03:25:09;16.00;56.60
9414;DHT22;4746;35.664;139.738;2023-12-29T03:27:37;16.20;55.00
9414;DHT22;4746;35.664;139.738;2023-12-29T03:30:05;16.30;53.00
9414;DHT22;4746;35.664;139.738;2023-12-29T03:32:33;16.40;51.40
9414;DHT22;4746;35.664;139.738;2023-12-29T03:35:00;16.50;50.60
9414;DHT22;4746;35.664;139.738;2023-12-29T03:37:28;16.70;48.20
9414;DHT22;4746;35.664;139.738;2023-12-29T03:39:55;17.10;48.70
9414;DHT22;4746;35.664;139.738;2023-12-29T03:42:23;17.30;45.90
9414;DHT22;4746;35.664;139.738;2023-12-29T03:44:50;17.40;44.20
9414;DHT22;4746;35.664;139.738;2023-12-29T03:47:18;17.40;42.00
9414;DHT22;4746;35.664;139.738;2023-12-29T03:49:45;17.40;41.40
9414;DHT22;4746;35.664;139.738;2023-12-29T03:52:13;17.40;39.50
9414;DHT22;4746;35.664;139.738;2023-12-29T03:54:40;17.30;40.40
9414;DHT22;4746;35.664;139.738;2023-12-29T03:57:08;17.50;38.50
9414;DHT22;4746;35.664;139.738;2023-12-29T03:59:38;18.00;38.80
9414;DHT22;4746;35.664;139.738;2023-12-29T04:02:06;18.40;38.00
9414;DHT22;4746;35.664;139.738;2023-12-29T04:04:37;19.00;36.10
9414;DHT22;4746;35.664;139.738;2023-12-29T04:07:05;19.40;36.20
9414;DHT22;4746;35.664;139.738;2023-12-29T04:09:32;19.60;35.70
9414;DHT22;4746;35.664;139.738;2023-12-29T04:12:00;19.90;32.10
9414;DHT22;4746;35.664;139.738;2023-12-29T04:14:27;20.10;32.80
9414;DHT22;4746;35.664;139.738;2023-12-29T04:16:55;20.50;31.20
9414;DHT22;4746;35.664;139.738;2023-12-29T04:19:22;21.00;30.20
9414;DHT22;4746;35.664;139.738;2023-12-29T04:21:49;21.30;29.40
9414;DHT22;4746;35.664;139.738;2023-12-29T04:24:18;21.80;29.50
9414;DHT22;4746;35.664;139.738;2023-12-29T04:26:45;22.10;27.60
9414;DHT22;4746;35.664;139.738;2023-12-29T04:29:13;22.40;26.90
9414;DHT22;4746;35.664;139.738;2023-12-29T04:31:42;23.00;27.80
9414;DHT22;4746;35.664;139.738;2023-12-29T04:34:09;23.30;26.00
9414;DHT22;4746;35.664;139.738;2023-12-29T04:36:36;23.60;25.70
9414;DHT22;4746;35.664;139.738;2023-12-29T04:39:07;23.80;24.30
9414;DHT22;4746;35.664;139.738;2023-12-29T04:41:37;24.00;23.30
9414;DHT22;4746;35.664;139.738;2023-12-29T04:44:04;24.00;23.30
9414;DHT22;4746;35.664;139.738;2023-12-29T04:46:32;24.10;21.70
9414;DHT22;4746;35.664;139.738;2023-12-29T04:49:00;24.30;22.40
9414;DHT22;4746;35.664;139.738;2023-12-29T04:51:28;24.50;20.80
9414;DHT22;4746;35.664;139.738;2023-12-29T04:53:55;24.40;20.10
9414;DHT22;4746;35.664;139.738;2023-12-29T04:56:23;24.40;20.60
9414;DHT22;4746;35.664;139.738;2023-12-29T04:58:52;24.40;19.90
9414;DHT22;4746;35.664;139.738;2023-12-29T05:01:21;24.70;19.90
9414;DHT22;4746;35.664;139.738;2023-12-29T05:03:48;25.00;19.40
9414;DHT22;4746;35.664;139.738;2023-12-29T05:06:16;24.90;19.30
9414;DHT22;4746;35.664;139.738;2023-12-29T05:08:43;25.00;19.00
9414;DHT22;4746;35.664;139.738;2023-12-29T05:11:10;25.30;19.00
9414;DHT22;4746;35.664;139.738;2023-12-29T05:13:38;25.70;18.50
9414;DHT22;4746;35.664;139.738;2023-12-29T05:16:06;26.00;18.50
9414;DHT22;4746;35.664;139.738;2023-12-29T05:18:35;26.50;18.30
9414;DHT22;4746;35.664;139.738;2023-12-29T05:21:03;27.00;17.70
9414;DHT22;4746;35.664;139.738;2023-12-29T05:23:32;27.40;17.50
9414;DHT22;4746;35.664;139.738;2023-12-29T05:25:59;27.50;16.80
9414;DHT22;4746;35.664;139.738;2023-12-29T05:28:27;27.50;16.70
9414;DHT22;4746;35.664;139.738;2023-12-29T05:30:54;27.10;16.10
9414;DHT22;4746;35.664;139.738;2023-12-29T05:33:22;27.20;15.70
9414;DHT22;4746;35.664;139.738;2023-12-29T05:35:50;27.40;15.90
9414;DHT22;4746;35.664;139.738;2023-12-29T05:38:17;27.70;15.10
9414;DHT22;4746;35.664;139.738;2023-12-29T05:40:45;27.90;15.30
9414;DHT22;4746;35.664;139.738;2023-12-29T05:43:12;28.10;15.40
9414;DHT22;4746;35.664;139.738;2023-12-29T05:45:41;28.60;15.20
9414;DHT22;4746;35.664;139.738;2023-12-29T05:48:09;29.00;14.50
9414;DHT22;4746;35.664;139.738;2023-12-29T05:50:37;29.30;14.30
9414;DHT22;4746;35.664;139.738;2023-12-29T05:53:05;29.70;14.10
9414;DHT22;4746;35.664;139.738;2023-12-29T05:55:34;29.90;13.80
9414;DHT22;4746;35.664;139.738;2023-12-29T05:58:02;30.20;13.80
9414;DHT22;4746;35.664;139.738;2023-12-29T06:00:30;30.10;13.00
9414;DHT22;4746;35.664;139.738;2023-12-29T06:02:58;30.30;13.00
9414;DHT22;4746;35.664;139.738;2023-12-29T06:05:25;29.80;12.40
9414;DHT22;4746;35.664;139.738;2023-12-29T06:07:53;29.50;12.40
9414;DHT22;4746;35.664;139.738;2023-12-29T06:10:20;29.20;12.60
9414;DHT22;4746;35.664;139.738;2023-12-29T06:12:48;28.80;12.40
9414;DHT22;4746;35.664;139.738;2023-12-29T06:15:16;28.70;12.20
9414;DHT22;4746;35.664;139.738;2023-12-29T06:17:44;28.70;12.40
9414;DHT22;4746;35.664;139.738;2023-12-29T06:20:11;28.90;12.40
9414;DHT22;4746;35.664;139.738;2023-12-29T06:22:42;29.00;12.40
9414;DHT22;4746;35.664;139.738;2023-12-29T06:25:13;29.20;12.20
9414;DHT22;4746;35.664;139.738;2023-12-29T06:27:41;29.30;12.20
9414;DHT22;4746;35.664;139.738;2023-12-29T06:30:09;29.50;12.20
9414;DHT22;4746;35.664;139.738;2023-12-29T06:32:37;29.70;12.10
9414;DHT22;4746;35.664;139.738;2023-12-29T06:35:06;29.70;12.10
9414;DHT22;4746;35.664;139.738;2023-12-29T06:37:40;29.80;12.00
9414;DHT22;4746;35.664;139.738;2023-12-29T06:40:08;30.10;11.80
9414;DHT22;4746;35.664;139.738;2023-12-29T06:42:36;30.20;11.60
9414;DHT22;4746;35.664;139.738;2023-12-29T06:45:05;30.10;11.60
9414;DHT22;4746;35.664;139.738;2023-12-29T06:47:34;30.00;11.70
9414;DHT22;4746;35.664;139.738;2023-12-29T06:50:02;29.60;11.70
9414;DHT22;4746;35.664;139.738;2023-12-29T06:52:30;29.10;11.80
9414;DHT22;4746;35.664;139.738;2023-12-29T06:55:03;28.70;11.90
9414;DHT22;4746;35.664;139.738;2023-12-29T06:57:31;28.40;11.90
9414;DHT22;4746;35.664;139.738;2023-12-29T06:59:59;28.10;11.60
9414;DHT22;4746;35.664;139.738;2023-12-29T07:02:27;27.70;12.70
9414;DHT22;4746;35.664;139.738;2023-12-29T07:04:54;27.30;13.10
9414;DHT22;4746;35.664;139.738;2023-12-29T07:07:22;26.90;13.30
9414;DHT22;4746;35.664;139.738;2023-12-29T07:09:49;26.50;13.40
9414;DHT22;4746;35.664;139.738;2023-12-29T07:12:17;26.10;13.60
9414;DHT22;4746;35.664;139.738;2023-12-29T07:14:44;25.70;14.20
9414;DHT22;4746;35.664;139.738;2023-12-29T07:17:12;25.20;14.90
9414;DHT22;4746;35.664;139.738;2023-12-29T07:19:40;24.70;15.50
9414;DHT22;4746;35.664;139.738;2023-12-29T07:22:07;24.30;16.40
9414;DHT22;4746;35.664;139.738;2023-12-29T07:24:35;23.80;16.00
9414;DHT22;4746;35.664;139.738;2023-12-29T07:27:03;23.20;16.40
9414;DHT22;4746;35.664;139.738;2023-12-29T07:29:31;22.70;16.80
9414;DHT22;4746;35.664;139.738;2023-12-29T07:31:59;22.30;17.10
9414;DHT22;4746;35.664;139.738;2023-12-29T07:34:27;21.80;17.60
9414;DHT22;4746;35.664;139.738;2023-12-29T07:36:57;21.30;18.10
9414;DHT22;4746;35.664;139.738;2023-12-29T07:39:25;20.80;18.90
9414;DHT22;4746;35.664;139.738;2023-12-29T07:41:54;20.30;20.00
9414;DHT22;4746;35.664;139.738;2023-12-29T07:44:22;19.90;20.70
9414;DHT22;4746;35.664;139.738;2023-12-29T07:46:51;19.50;21.20
9414;DHT22;4746;35.664;139.738;2023-12-29T07:49:18;19.00;21.70
9414;DHT22;4746;35.664;139.738;2023-12-29T07:51:47;18.70;22.20
9414;DHT22;4746;35.664;139.738;2023-12-29T07:54:14;18.30;22.50
9414;DHT22;4746;35.664;139.738;2023-12-29T07:56:42;18.00;22.80
9414;DHT22;4746;35.664;139.738;2023-12-29T07:59:09;17.80;23.40
9414;DHT22;4746;35.664;139.738;2023-12-29T08:01:37;17.60;24.00
9414;DHT22;4746;35.664;139.738;2023-12-29T08:04:05;17.30;24.40
9414;DHT22;4746;35.664;139.738;2023-12-29T08:06:33;17.10;25.00
9414;DHT22;4746;35.664;139.738;2023-12-29T08:09:03;16.90;25.20
9414;DHT22;4746;35.664;139.738;2023-12-29T08:11:31;16.70;25.50
9414;DHT22;4746;35.664;139.738;2023-12-29T08:13:59;16.50;25.50
9414;DHT22;4746;35.664;139.738;2023-12-29T08:16:26;16.40;25.70
9414;DHT22;4746;35.664;139.738;2023-12-29T08:18:54;16.20;25.80
9414;DHT22;4746;35.664;139.738;2023-12-29T08:21:24;16.00;25.90
9414;DHT22;4746;35.664;139.738;2023-12-29T08:23:53;15.90;26.00
9414;DHT22;4746;35.664;139.738;2023-12-29T08:26:21;15.80;26.20
9414;DHT22;4746;35.664;139.738;2023-12-29T08:28:48;15.60;26.40
9414;DHT22;4746;35.664;139.738;2023-12-29T08:31:17;15.50;26.80
9414;DHT22;4746;35.664;139.738;2023-12-29T08:33:46;15.40;27.60
9414;DHT22;4746;35.664;139.738;2023-12-29T08:36:13;15.40;27.50
9414;DHT22;4746;35.664;139.738;2023-12-29T08:38:44;15.30;27.60
9414;DHT22;4746;35.664;139.738;2023-12-29T08:41:14;15.20;27.80
9414;DHT22;4746;35.664;139.738;2023-12-29T08:43:41;15.10;27.70
9414;DHT22;4746;35.664;139.738;2023-12-29T08:46:09;15.00;27.70
9414;DHT22;4746;35.664;139.738;2023-12-29T08:48:36;14.90;27.60
9414;DHT22;4746;35.664;139.738;2023-12-29T08:51:04;14.80;27.30
9414;DHT22;4746;35.664;139.738;2023-12-29T08:53:32;14.80;27.10
9414;DHT22;4746;35.664;139.738;2023-12-29T08:56:02;14.70;27.60
9414;DHT22;4746;35.664;139.738;2023-12-29T08:58:30;14.70;27.80
9414;DHT22;4746;35.664;139.738;2023-12-29T09:00:58;14.60;27.70
9414;DHT22;4746;35.664;139.738;2023-12-29T09:03:25;14.60;27.80
9414;DHT22;4746;35.664;139.738;2023-12-29T09:05:54;14.60;27.80
9414;DHT22;4746;35.664;139.738;2023-12-29T09:08:23;14.50;27.90
9414;DHT22;4746;35.664;139.738;2023-12-29T09:10:50;14.50;28.10
9414;DHT22;4746;35.664;139.738;2023-12-29T09:13:18;14.40;28.10
9414;DHT22;4746;35.664;139.738;2023-12-29T09:15:49;14.40;28.30
9414;DHT22;4746;35.664;139.738;2023-12-29T09:18:17;14.30;28.50
9414;DHT22;4746;35.664;139.738;2023-12-29T09:20:44;14.30;28.50
9414;DHT22;4746;35.664;139.738;2023-12-29T09:23:12;14.20;28.70
9414;DHT22;4746;35.664;139.738;2023-12-29T09:25:40;14.20;28.70
9414;DHT22;4746;35.664;139.738;2023-12-29T09:28:08;14.20;28.60
9414;DHT22;4746;35.664;139.738;2023-12-29T09:30:37;14.10;28.70
9414;DHT22;4746;35.664;139.738;2023-12-29T09:33:04;14.10;28.70
9414;DHT22;4746;35.664;139.738;2023-12-29T09:35:32;14.00;28.60
9414;DHT22;4746;35.664;139.738;2023-12-29T09:37:59;14.00;29.00
9414;DHT22;4746;35.664;139.738;2023-12-29T09:40:28;14.00;29.00
9414;DHT22;4746;35.664;139.738;2023-12-29T09:42:55;14.00;29.20
9414;DHT22;4746;35.664;139.738;2023-12-29T09:45:24;13.90;29.40
9414;DHT22;4746;35.664;139.738;2023-12-29T09:47:53;13.90;29.50
9414;DHT22;4746;35.664;139.738;2023-12-29T09:50:25;13.80;29.20
9414;DHT22;4746;35.664;139.738;2023-12-29T09:52:54;13.80;29.10
9414;DHT22;4746;35.664;139.738;2023-12-29T09:55:23;13.80;29.20
9414;DHT22;4746;35.664;139.738;2023-12-29T09:57:52;13.80;29.50
9414;DHT22;4746;35.664;139.738;2023-12-29T10:00:20;13.80;29.40
9414;DHT22;4746;35.664;139.738;2023-12-29T10:02:51;13.70;29.30
9414;DHT22;4746;35.664;139.738;2023-12-29T10:05:23;13.70;29.40
9414;DHT22;4746;35.664;139.738;2023-12-29T10:07:52;13.60;29.30
9414;DHT22;4746;35.664;139.738;2023-12-29T10:10:20;13.60;29.20
9414;DHT22;4746;35.664;139.738;2023-12-29T10:12:51;13.60;29.30
9414;DHT22;4746;35.664;139.738;2023-12-29T10:15:28;13.60;29.30
9414;DHT22;4746;35.664;139.738;2023-12-29T10:18:14;13.60;30.00
9414;DHT22;4746;35.664;139.738;2023-12-29T10:21:06;13.50;30.30
9414;DHT22;4746;35.664;139.738;2023-12-29T10:23:48;13.40;30.90
9414;DHT22;4746;35.664;139.738;2023-12-29T10:26:25;13.40;31.20
9414;DHT22;4746;35.664;139.738;2023-12-29T10:28:53;13.30;31.50
9414;DHT22;4746;35.664;139.738;2023-12-29T10:31:23;13.20;32.30
9414;DHT22;4746;35.664;139.738;2023-12-29T10:33:52;13.10;33.00
9414;DHT22;4746;35.664;139.738;2023-12-29T10:36:51;13.10;33.20
9414;DHT22;4746;35.664;139.738;2023-12-29T10:39:19;13.00;34.60
9414;DHT22;4746;35.664;139.738;2023-12-29T10:41:46;13.00;34.30
9414;DHT22;4746;35.664;139.738;2023-12-29T10:44:14;12.90;34.70
9414;DHT22;4746;35.664;139.738;2023-12-29T10:46:42;12.90;35.20
9414;DHT22;4746;35.664;139.738;2023-12-29T10:49:11;12.90;35.10
9414;DHT22;4746;35.664;139.738;2023-12-29T10:51:40;12.90;35.30
9414;DHT22;4746;35.664;139.738;2023-12-29T10:54:08;12.90;36.00
9414;DHT22;4746;35.664;139.738;2023-12-29T10:57:02;12.90;37.00
9414;DHT22;4746;35.664;139.738;2023-12-29T10:59:30;12.90;37.60
9414;DHT22;4746;35.664;139.738;2023-12-29T11:02:01;12.80;38.40
9414;DHT22;4746;35.664;139.738;2023-12-29T11:04:34;12.80;38.90
9414;DHT22;4746;35.664;139.738;2023-12-29T11:07:02;12.80;38.80
9414;DHT22;4746;35.664;139.738;2023-12-29T11:09:31;12.80;39.70
9414;DHT22;4746;35.664;139.738;2023-12-29T11:12:02;12.80;40.70
9414;DHT22;4746;35.664;139.738;2023-12-29T11:14:32;12.80;41.70
9414;DHT22;4746;35.664;139.738;2023-12-29T11:17:01;12.80;42.30
9414;DHT22;4746;35.664;139.738;2023-12-29T11:19:30;12.80;43.00
9414;DHT22;4746;35.664;139.738;2023-12-29T11:22:00;12.80;43.00
9414;DHT22;4746;35.664;139.738;2023-12-29T11:24:29;12.80;43.80
9414;DHT22;4746;35.664;139.738;2023-12-29T11:26:57;12.70;44.30
9414;DHT22;4746;35.664;139.738;2023-12-29T11:29:25;12.70;44.10
9414;DHT22;4746;35.664;139.738;2023-12-29T11:31:53;12.70;44.40
9414;DHT22;4746;35.664;139.738;2023-12-29T11:34:41;12.70;44.70
9414;DHT22;4746;35.664;139.738;2023-12-29T11:40:56;12.60;44.80
9414;DHT22;4746;35.664;139.738;2023-12-29T11:43:19;12.60;45.50
9414;DHT22;4746;35.664;139.738;2023-12-29T11:45:47;12.60;45.70
9414;DHT22;4746;35.664;139.738;2023-12-29T11:54:04;12.60;48.10
9414;DHT22;4746;35.664;139.738;2023-12-29T11:56:38;12.50;48.10
9414;DHT22;4746;35.664;139.738;2023-12-29T11:59:24;12.50;49.20
9414;DHT22;4746;35.664;139.738;2023-12-29T12:01:58;12.50;49.90
9414;DHT22;4746;35.664;139.738;2023-12-29T12:04:43;12.50;50.60
9414;DHT22;4746;35.664;139.738;2023-12-29T12:12:49;12.40;53.00
9414;DHT22;4746;35.664;139.738;2023-12-29T12:17:57;12.40;53.50
9414;DHT22;4746;35.664;139.738;2023-12-29T12:20:26;12.30;53.70
9414;DHT22;4746;35.664;139.738;2023-12-29T12:23:12;12.40;53.90
9414;DHT22;4746;35.664;139.738;2023-12-29T12:25:46;12.30;54.60
9414;DHT22;4746;35.664;139.738;2023-12-29T12:28:16;12.30;55.10
9414;DHT22;4746;35.664;139.738;2023-12-29T12:30:44;12.30;55.30
9414;DHT22;4746;35.664;139.738;2023-12-29T12:33:13;12.30;56.00
9414;DHT22;4746;35.664;139.738;2023-12-29T12:35:40;12.30;56.10
9414;DHT22;4746;35.664;139.738;2023-12-29T12:38:13;12.30;56.10
9414;DHT22;4746;35.664;139.738;2023-12-29T12:40:48;12.30;56.30
9414;DHT22;4746;35.664;139.738;2023-12-29T12:43:17;12.30;56.30
9414;DHT22;4746;35.664;139.738;2023-12-29T12:46:01;12.30;56.70
9414;DHT22;4746;35.664;139.738;2023-12-29T12:48:40;12.20;56.60
9414;DHT22;4746;35.664;139.738;2023-12-29T12:51:11;12.20;56.80
9414;DHT22;4746;35.664;139.738;2023-12-29T12:53:40;12.20;56.80
9414;DHT22;4746;35.664;139.738;2023-12-29T12:56:11;12.20;57.00
9414;DHT22;4746;35.664;139.738;2023-12-29T12:58:38;12.20;56.90
9414;DHT22;4746;35.664;139.738;2023-12-29T13:01:07;12.20;56.60
9414;DHT22;4746;35.664;139.738;2023-12-29T13:03:38;12.20;56.30
9414;DHT22;4746;35.664;139.738;2023-12-29T13:06:06;12.10;56.00
9414;DHT22;4746;35.664;139.738;2023-12-29T13:08:34;12.10;54.70
9414;DHT22;4746;35.664;139.738;2023-12-29T13:11:02;12.10;54.70
9414;DHT22;4746;35.664;139.738;2023-12-29T13:13:41;12.00;54.40
9414;DHT22;4746;35.664;139.738;2023-12-29T13:16:09;12.00;54.80
9414;DHT22;4746;35.664;139.738;2023-12-29T13:18:37;12.00;55.00
9414;DHT22;4746;35.664;139.738;2023-12-29T13:21:06;11.90;56.80
9414;DHT22;4746;35.664;139.738;2023-12-29T13:23:36;11.80;58.40
9414;DHT22;4746;35.664;139.738;2023-12-29T13:26:06;11.80;59.10
9414;DHT22;4746;35.664;139.738;2023-12-29T13:28:36;11.80;59.90
9414;DHT22;4746;35.664;139.738;2023-12-29T13:31:07;11.70;59.60
9414;DHT22;4746;35.664;139.738;2023-12-29T13:34:01;11.70;60.00
9414;DHT22;4746;35.664;139.738;2023-12-29T13:36:49;11.60;61.70
9414;DHT22;4746;35.664;139.738;2023-12-29T13:39:27;11.60;63.50
9414;DHT22;4746;35.664;139.738;2023-12-29T13:42:00;11.50;65.30
9414;DHT22;4746;35.664;139.738;2023-12-29T13:44:30;11.50;66.80
9414;DHT22;4746;35.664;139.738;2023-12-29T13:46:59;11.50;67.90
9414;DHT22;4746;35.664;139.738;2023-12-29T13:49:28;11.50;70.80
9414;DHT22;4746;35.664;139.738;2023-12-29T13:52:00;11.50;73.80
9414;DHT22;4746;35.664;139.738;2023-12-29T13:54:28;11.40;77.50
9414;DHT22;4746;35.664;139.738;2023-12-29T13:56:57;11.40;80.80
9414;DHT22;4746;35.664;139.738;2023-12-29T13:59:31;11.30;75.20
9414;DHT22;4746;35.664;139.738;2023-12-29T14:02:19;11.20;71.30
9414;DHT22;4746;35.664;139.738;2023-12-29T14:10:31;11.00;61.90
9414;DHT22;4746;35.664;139.738;2023-12-29T14:13:14;10.90;61.70
9414;DHT22;4746;35.664;139.738;2023-12-29T14:15:45;10.90;59.80
9414;DHT22;4746;35.664;139.738;2023-12-29T14:18:42;10.80;60.00
9414;DHT22;4746;35.664;139.738;2023-12-29T14:24:14;10.70;57.30
9414;DHT22;4746;35.664;139.738;2023-12-29T14:27:04;10.60;55.70
9414;DHT22;4746;35.664;139.738;2023-12-29T14:29:40;10.60;55.40
9414;DHT22;4746;35.664;139.738;2023-12-29T14:32:09;10.50;55.50
9414;DHT22;4746;35.664;139.738;2023-12-29T14:34:37;10.40;55.30
9414;DHT22;4746;35.664;139.738;2023-12-29T14:37:04;10.40;55.00
9414;DHT22;4746;35.664;139.738;2023-12-29T14:39:32;10.40;54.80
9414;DHT22;4746;35.664;139.738;2023-12-29T14:41:59;10.30;54.50
9414;DHT22;4746;35.664;139.738;2023-12-29T14:44:27;10.30;54.80
9414;DHT22;4746;35.664;139.738;2023-12-29T14:46:55;10.30;55.00
9414;DHT22;4746;35.664;139.738;2023-12-29T14:49:22;10.30;55.20
9414;DHT22;4746;35.664;139.738;2023-12-29T14:51:50;10.20;54.80
9414;DHT22;4746;35.664;139.738;2023-12-29T14:54:19;10.20;54.80
9414;DHT22;4746;35.664;139.738;2023-12-29T14:56:46;10.20;55.40
9414;DHT22;4746;35.664;139.738;2023-12-29T14:59:14;10.10;55.30
9414;DHT22;4746;35.664;139.738;2023-12-29T15:01:41;10.00;55.20
9414;DHT22;4746;35.664;139.738;2023-12-29T15:04:09;10.00;55.90
9414;DHT22;4746;35.664;139.738;2023-12-29T15:06:38;10.00;55.70
9414;DHT22;4746;35.664;139.738;2023-12-29T15:09:06;9.90;56.70
9414;DHT22;4746;35.664;139.738;2023-12-29T15:11:37;9.90;57.10
9414;DHT22;4746;35.664;139.738;2023-12-29T15:14:04;9.90;57.70
9414;DHT22;4746;35.664;139.738;2023-12-29T15:16:32;9.80;57.70
9414;DHT22;4746;35.664;139.738;2023-12-29T15:19:00;9.80;58.20
9414;DHT22;4746;35.664;139.738;2023-12-29T15:21:30;9.80;58.80
9414;DHT22;4746;35.664;139.738;2023-12-29T15:23:59;9.70;58.70
9414;DHT22;4746;35.664;139.738;2023-12-29T15:26:27;9.70;59.30
9414;DHT22;4746;35.664;139.738;2023-12-29T15:28:55;9.70;59.90
9414;DHT22;4746;35.664;139.738;2023-12-29T15:31:26;9.60;60.90
9414;DHT22;4746;35.664;139.738;2023-12-29T15:33:53;9.60;62.60
9414;DHT22;4746;35.664;139.738;2023-12-29T15:36:21;9.60;63.70
9414;DHT22;4746;35.664;139.738;2023-12-29T15:38:50;9.60;64.70
9414;DHT22;4746;35.664;139.738;2023-12-29T15:41:18;9.50;65.70
9414;DHT22;4746;35.664;139.738;2023-12-29T15:43:48;9.50;66.70
9414;DHT22;4746;35.664;139.738;2023-12-29T15:46:17;9.40;68.60
9414;DHT22;4746;35.664;139.738;2023-12-29T15:48:48;9.40;69.30
9414;DHT22;4746;35.664;139.738;2023-12-29T15:51:16;9.30;70.30
9414;DHT22;4746;35.664;139.738;2023-12-29T15:53:44;9.30;71.70
9414;DHT22;4746;35.664;139.738;2023-12-29T15:56:19;9.30;73.20
9414;DHT22;4746;35.664;139.738;2023-12-29T15:58:46;9.30;74.50
9414;DHT22;4746;35.664;139.738;2023-12-29T16:01:24;9.30;74.90
9414;DHT22;4746;35.664;139.738;2023-12-29T16:03:56;9.20;76.00
9414;DHT22;4746;35.664;139.738;2023-12-29T16:06:25;9.20;76.70
9414;DHT22;4746;35.664;139.738;2023-12-29T16:08:54;9.20;78.00
9414;DHT22;4746;35.664;139.738;2023-12-29T16:11:27;9.10;80.00
9414;DHT22;4746;35.664;139.738;2023-12-29T16:13:56;9.10;82.00
9414;DHT22;4746;35.664;139.738;2023-12-29T16:16:25;9.00;84.30